sensor_id;sensor_type;location;lat;lon;timestamp;P1;durP1;ratioP1;P2;durP2;ratioP2
8279;SDS011;8335;42.646;23.380;2023-05-07T00:01:19;6.43;;;4.80;;
8279;SDS011;8335;42.646;23.380;2023-05-07T00:03:46;5.20;;;4.23;;
8279;SDS011;8335;42.646;23.380;2023-05-07T00:06:13;6.87;;;4.97;;
8279;SDS011;8335;42.646;23.380;2023-05-07T00:08:40;8.00;;;4.90;;
8279;SDS011;8335;42.646;23.380;2023-05-07T00:11:08;8.03;;;5.10;;
8279;SDS011;8335;42.646;23.380;2023-05-07T00:13:34;6.73;;;4.90;;
8279;SDS011;8335;42.646;23.380;2023-05-07T00:16:01;8.27;;;5.13;;
8279;SDS011;8335;42.646;23.380;2023-05-07T00:18:28;12.70;;;5.50;;
8279;SDS011;8335;42.646;23.380;2023-05-07T00:20:55;6.03;;;5.07;;
8279;SDS011;8335;42.646;23.380;2023-05-07T00:23:22;6.63;;;4.90;;
8279;SDS011;8335;42.646;23.380;2023-05-07T00:25:49;6.03;;;5.40;;
8279;SDS011;8335;42.646;23.380;2023-05-07T00:28:17;6.57;;;5.17;;
8279;SDS011;8335;42.646;23.380;2023-05-07T00:30:44;5.90;;;4.53;;
8279;SDS011;8335;42.646;23.380;2023-05-07T00:33:11;6.50;;;5.00;;
8279;SDS011;8335;42.646;23.380;2023-05-07T00:35:37;7.57;;;5.10;;
8279;SDS011;8335;42.646;23.380;2023-05-07T00:38:04;11.47;;;5.70;;
8279;SDS011;8335;42.646;23.380;2023-05-07T00:40:31;8.83;;;5.30;;
8279;SDS011;8335;42.646;23.380;2023-05-07T00:42:58;7.30;;;5.00;;
8279;SDS011;8335;42.646;23.380;2023-05-07T00:45:27;7.03;;;5.33;;
8279;SDS011;8335;42.646;23.380;2023-05-07T00:47:54;8.53;;;6.27;;
8279;SDS011;8335;42.646;23.380;2023-05-07T00:50:21;12.00;;;7.30;;
8279;SDS011;8335;42.646;23.380;2023-05-07T00:52:48;10.27;;;6.90;;
8279;SDS011;8335;42.646;23.380;2023-05-07T00:55:15;7.00;;;5.57;;
8279;SDS011;8335;42.646;23.380;2023-05-07T00:57:42;6.90;;;5.20;;
8279;SDS011;8335;42.646;23.380;2023-05-07T01:00:10;7.53;;;4.97;;
8279;SDS011;8335;42.646;23.380;2023-05-07T01:02:39;7.37;;;5.10;;
8279;SDS011;8335;42.646;23.380;2023-05-07T01:05:06;6.37;;;5.17;;
8279;SDS011;8335;42.646;23.380;2023-05-07T01:07:35;7.93;;;6.13;;
8279;SDS011;8335;42.646;23.380;2023-05-07T01:10:03;7.60;;;5.60;;
8279;SDS011;8335;42.646;23.380;2023-05-07T01:12:31;6.50;;;5.20;;
8279;SDS011;8335;42.646;23.380;2023-05-07T01:14:59;5.97;;;5.10;;
8279;SDS011;8335;42.646;23.380;2023-05-07T01:17:26;8.57;;;5.97;;
8279;SDS011;8335;42.646;23.380;2023-05-07T01:19:55;6.07;;;5.47;;
8279;SDS011;8335;42.646;23.380;2023-05-07T01:22:29;8.10;;;5.30;;
8279;SDS011;8335;42.646;23.380;2023-05-07T01:24:57;6.53;;;5.83;;
8279;SDS011;8335;42.646;23.380;2023-05-07T01:27:24;7.47;;;5.90;;
8279;SDS011;8335;42.646;23.380;2023-05-07T01:29:51;8.03;;;6.37;;
8279;SDS011;8335;42.646;23.380;2023-05-07T01:32:19;8.00;;;6.57;;
8279;SDS011;8335;42.646;23.380;2023-05-07T01:34:49;8.47;;;6.20;;
8279;SDS011;8335;42.646;23.380;2023-05-07T01:37:18;8.40;;;6.40;;
8279;SDS011;8335;42.646;23.380;2023-05-07T01:39:46;9.23;;;6.33;;
8279;SDS011;8335;42.646;23.380;2023-05-07T01:42:14;8.30;;;6.83;;
8279;SDS011;8335;42.646;23.380;2023-05-07T01:44:41;8.40;;;6.33;;
8279;SDS011;8335;42.646;23.380;2023-05-07T01:47:08;12.07;;;7.43;;
8279;SDS011;8335;42.646;23.380;2023-05-07T01:49:35;10.27;;;8.00;;
8279;SDS011;8335;42.646;23.380;2023-05-07T01:52:02;10.90;;;8.43;;
8279;SDS011;8335;42.646;23.380;2023-05-07T01:54:29;14.50;;;9.17;;
8279;SDS011;8335;42.646;23.380;2023-05-07T01:56:57;11.53;;;8.80;;
8279;SDS011;8335;42.646;23.380;2023-05-07T01:59:25;9.90;;;8.30;;
8279;SDS011;8335;42.646;23.380;2023-05-07T02:01:51;11.53;;;9.00;;
8279;SDS011;8335;42.646;23.380;2023-05-07T02:04:18;13.57;;;9.07;;
8279;SDS011;8335;42.646;23.380;2023-05-07T02:06:45;11.30;;;8.40;;
8279;SDS011;8335;42.646;23.380;2023-05-07T02:09:13;10.57;;;8.27;;
8279;SDS011;8335;42.646;23.380;2023-05-07T02:11:41;10.33;;;8.20;;
8279;SDS011;8335;42.646;23.380;2023-05-07T02:14:09;11.57;;;8.80;;
8279;SDS011;8335;42.646;23.380;2023-05-07T02:16:36;14.03;;;9.23;;
8279;SDS011;8335;42.646;23.380;2023-05-07T02:19:03;10.27;;;8.60;;
8279;SDS011;8335;42.646;23.380;2023-05-07T02:21:30;11.13;;;9.33;;
8279;SDS011;8335;42.646;23.380;2023-05-07T02:23:57;13.57;;;9.03;;
8279;SDS011;8335;42.646;23.380;2023-05-07T02:26:23;13.10;;;9.17;;
8279;SDS011;8335;42.646;23.380;2023-05-07T02:28:51;13.57;;;9.70;;
8279;SDS011;8335;42.646;23.380;2023-05-07T02:31:20;13.90;;;9.53;;
8279;SDS011;8335;42.646;23.380;2023-05-07T02:33:47;14.23;;;9.77;;
8279;SDS011;8335;42.646;23.380;2023-05-07T02:36:13;14.37;;;9.83;;
8279;SDS011;8335;42.646;23.380;2023-05-07T02:38:40;15.80;;;10.20;;
8279;SDS011;8335;42.646;23.380;2023-05-07T02:41:07;14.57;;;9.77;;
8279;SDS011;8335;42.646;23.380;2023-05-07T02:43:34;12.60;;;9.60;;
8279;SDS011;8335;42.646;23.380;2023-05-07T02:46:01;10.90;;;9.40;;
8279;SDS011;8335;42.646;23.380;2023-05-07T02:48:30;12.33;;;9.47;;
8279;SDS011;8335;42.646;23.380;2023-05-07T02:50:57;11.27;;;9.63;;
8279;SDS011;8335;42.646;23.380;2023-05-07T02:53:24;13.47;;;9.43;;
8279;SDS011;8335;42.646;23.380;2023-05-07T02:55:51;12.17;;;9.97;;
8279;SDS011;8335;42.646;23.380;2023-05-07T02:58:19;16.13;;;10.20;;
8279;SDS011;8335;42.646;23.380;2023-05-07T03:00:46;12.67;;;10.33;;
8279;SDS011;8335;42.646;23.380;2023-05-07T03:03:13;12.73;;;10.17;;
8279;SDS011;8335;42.646;23.380;2023-05-07T03:05:41;17.57;;;10.60;;
8279;SDS011;8335;42.646;23.380;2023-05-07T03:08:09;14.70;;;11.00;;
8279;SDS011;8335;42.646;23.380;2023-05-07T03:10:36;15.50;;;12.13;;
8279;SDS011;8335;42.646;23.380;2023-05-07T03:13:03;15.00;;;11.67;;
8279;SDS011;8335;42.646;23.380;2023-05-07T03:15:30;15.87;;;11.87;;
8279;SDS011;8335;42.646;23.380;2023-05-07T03:17:57;18.47;;;11.90;;
8279;SDS011;8335;42.646;23.380;2023-05-07T03:20:24;16.43;;;12.20;;
8279;SDS011;8335;42.646;23.380;2023-05-07T03:22:52;15.90;;;11.97;;
8279;SDS011;8335;42.646;23.380;2023-05-07T03:25:19;15.20;;;12.63;;
8279;SDS011;8335;42.646;23.380;2023-05-07T03:27:45;18.23;;;12.40;;
8279;SDS011;8335;42.646;23.380;2023-05-07T03:30:12;17.73;;;12.63;;
8279;SDS011;8335;42.646;23.380;2023-05-07T03:32:39;17.50;;;12.97;;
8279;SDS011;8335;42.646;23.380;2023-05-07T03:35:06;18.27;;;13.17;;
8279;SDS011;8335;42.646;23.380;2023-05-07T03:37:33;17.80;;;13.33;;
8279;SDS011;8335;42.646;23.380;2023-05-07T03:40:01;18.33;;;13.13;;
8279;SDS011;8335;42.646;23.380;2023-05-07T03:42:29;20.23;;;14.03;;
8279;SDS011;8335;42.646;23.380;2023-05-07T03:44:56;17.27;;;13.00;;
8279;SDS011;8335;42.646;23.380;2023-05-07T03:47:22;17.47;;;13.37;;
8279;SDS011;8335;42.646;23.380;2023-05-07T03:49:49;16.27;;;12.93;;
8279;SDS011;8335;42.646;23.380;2023-05-07T03:52:18;17.30;;;12.07;;
8279;SDS011;8335;42.646;23.380;2023-05-07T03:54:48;15.73;;;11.73;;
8279;SDS011;8335;42.646;23.380;2023-05-07T03:57:17;18.47;;;12.70;;
8279;SDS011;8335;42.646;23.380;2023-05-07T03:59:43;14.20;;;11.43;;
8279;SDS011;8335;42.646;23.380;2023-05-07T04:02:10;15.07;;;11.13;;
8279;SDS011;8335;42.646;23.380;2023-05-07T04:04:37;15.63;;;11.43;;
8279;SDS011;8335;42.646;23.380;2023-05-07T04:07:03;12.73;;;9.97;;
8279;SDS011;8335;42.646;23.380;2023-05-07T04:09:30;14.17;;;10.37;;
8279;SDS011;8335;42.646;23.380;2023-05-07T04:11:57;13.70;;;9.70;;
8279;SDS011;8335;42.646;23.380;2023-05-07T04:14:25;11.37;;;9.27;;
8279;SDS011;8335;42.646;23.380;2023-05-07T04:16:51;14.50;;;9.10;;
8279;SDS011;8335;42.646;23.380;2023-05-07T04:19:18;12.15;;;9.55;;
8279;SDS011;8335;42.646;23.380;2023-05-07T04:21:45;12.73;;;8.88;;
8279;SDS011;8335;42.646;23.380;2023-05-07T04:24:12;11.38;;;9.43;;
8279;SDS011;8335;42.646;23.380;2023-05-07T04:26:39;11.50;;;9.75;;
8279;SDS011;8335;42.646;23.380;2023-05-07T04:29:05;11.35;;;9.10;;
8279;SDS011;8335;42.646;23.380;2023-05-07T04:31:33;11.25;;;8.45;;
8279;SDS011;8335;42.646;23.380;2023-05-07T04:34:00;9.95;;;8.35;;
8279;SDS011;8335;42.646;23.380;2023-05-07T04:36:27;10.15;;;8.77;;
8279;SDS011;8335;42.646;23.380;2023-05-07T04:38:54;10.38;;;8.25;;
8279;SDS011;8335;42.646;23.380;2023-05-07T04:41:20;13.43;;;8.57;;
8279;SDS011;8335;42.646;23.380;2023-05-07T04:43:47;9.93;;;8.38;;
8279;SDS011;8335;42.646;23.380;2023-05-07T04:46:14;9.48;;;8.10;;
8279;SDS011;8335;42.646;23.380;2023-05-07T04:48:42;10.70;;;8.48;;
8279;SDS011;8335;42.646;23.380;2023-05-07T04:51:09;10.48;;;8.32;;
8279;SDS011;8335;42.646;23.380;2023-05-07T04:53:36;10.98;;;8.02;;
8279;SDS011;8335;42.646;23.380;2023-05-07T04:56:03;12.02;;;8.30;;
8279;SDS011;8335;42.646;23.380;2023-05-07T04:58:30;10.13;;;7.93;;
8279;SDS011;8335;42.646;23.380;2023-05-07T05:00:57;10.50;;;8.27;;
8279;SDS011;8335;42.646;23.380;2023-05-07T05:03:24;10.45;;;7.55;;
8279;SDS011;8335;42.646;23.380;2023-05-07T05:05:52;14.18;;;8.25;;
8279;SDS011;8335;42.646;23.380;2023-05-07T05:08:18;9.93;;;7.47;;
8279;SDS011;8335;42.646;23.380;2023-05-07T05:10:45;12.65;;;8.82;;
8279;SDS011;8335;42.646;23.380;2023-05-07T05:13:13;9.05;;;7.43;;
8279;SDS011;8335;42.646;23.380;2023-05-07T05:15:40;7.68;;;6.88;;
8279;SDS011;8335;42.646;23.380;2023-05-07T05:18:07;10.70;;;7.53;;
8279;SDS011;8335;42.646;23.380;2023-05-07T05:20:34;11.70;;;8.13;;
8279;SDS011;8335;42.646;23.380;2023-05-07T05:23:02;10.68;;;7.45;;
8279;SDS011;8335;42.646;23.380;2023-05-07T05:25:28;7.85;;;7.05;;
8279;SDS011;8335;42.646;23.380;2023-05-07T05:27:55;9.68;;;7.82;;
8279;SDS011;8335;42.646;23.380;2023-05-07T05:30:22;12.25;;;8.45;;
8279;SDS011;8335;42.646;23.380;2023-05-07T05:32:49;9.98;;;7.50;;
8279;SDS011;8335;42.646;23.380;2023-05-07T05:35:16;12.15;;;7.78;;
8279;SDS011;8335;42.646;23.380;2023-05-07T05:37:43;9.57;;;8.05;;
8279;SDS011;8335;42.646;23.380;2023-05-07T05:40:11;10.60;;;8.00;;
8279;SDS011;8335;42.646;23.380;2023-05-07T05:42:38;9.20;;;7.03;;
8279;SDS011;8335;42.646;23.380;2023-05-07T05:45:05;9.45;;;7.63;;
8279;SDS011;8335;42.646;23.380;2023-05-07T05:47:33;10.10;;;8.18;;
8279;SDS011;8335;42.646;23.380;2023-05-07T05:49:59;9.85;;;7.22;;
8279;SDS011;8335;42.646;23.380;2023-05-07T05:52:26;11.52;;;7.47;;
8279;SDS011;8335;42.646;23.380;2023-05-07T05:54:53;11.77;;;7.93;;
8279;SDS011;8335;42.646;23.380;2023-05-07T05:57:21;9.15;;;7.60;;
8279;SDS011;8335;42.646;23.380;2023-05-07T05:59:48;9.73;;;7.55;;
8279;SDS011;8335;42.646;23.380;2023-05-07T06:02:15;9.75;;;7.45;;
8279;SDS011;8335;42.646;23.380;2023-05-07T06:04:41;9.25;;;7.40;;
8279;SDS011;8335;42.646;23.380;2023-05-07T06:07:08;8.40;;;7.35;;
8279;SDS011;8335;42.646;23.380;2023-05-07T06:09:35;10.48;;;7.60;;
8279;SDS011;8335;42.646;23.380;2023-05-07T06:12:02;8.00;;;6.63;;
8279;SDS011;8335;42.646;23.380;2023-05-07T06:14:30;8.52;;;6.72;;
8279;SDS011;8335;42.646;23.380;2023-05-07T06:16:57;10.20;;;7.07;;
8279;SDS011;8335;42.646;23.380;2023-05-07T06:19:23;10.55;;;7.07;;
8279;SDS011;8335;42.646;23.380;2023-05-07T06:21:51;11.40;;;7.22;;
8279;SDS011;8335;42.646;23.380;2023-05-07T06:24:18;8.98;;;7.15;;
8279;SDS011;8335;42.646;23.380;2023-05-07T06:26:45;9.40;;;6.70;;
8279;SDS011;8335;42.646;23.380;2023-05-07T06:29:11;8.40;;;6.55;;
8279;SDS011;8335;42.646;23.380;2023-05-07T06:31:40;9.95;;;6.75;;
8279;SDS011;8335;42.646;23.380;2023-05-07T06:34:07;9.57;;;7.38;;
8279;SDS011;8335;42.646;23.380;2023-05-07T06:36:33;7.63;;;6.65;;
8279;SDS011;8335;42.646;23.380;2023-05-07T06:39:01;9.70;;;5.80;;
8279;SDS011;8335;42.646;23.380;2023-05-07T06:41:27;8.32;;;6.55;;
8279;SDS011;8335;42.646;23.380;2023-05-07T06:43:54;9.88;;;6.22;;
8279;SDS011;8335;42.646;23.380;2023-05-07T06:46:21;6.78;;;6.00;;
8279;SDS011;8335;42.646;23.380;2023-05-07T06:48:49;7.90;;;6.13;;
8279;SDS011;8335;42.646;23.380;2023-05-07T06:51:16;8.93;;;6.00;;
8279;SDS011;8335;42.646;23.380;2023-05-07T06:53:42;8.02;;;6.90;;
8279;SDS011;8335;42.646;23.380;2023-05-07T06:56:09;6.97;;;6.28;;
8279;SDS011;8335;42.646;23.380;2023-05-07T06:58:36;9.40;;;6.35;;
8279;SDS011;8335;42.646;23.380;2023-05-07T07:01:03;9.07;;;5.63;;
8279;SDS011;8335;42.646;23.380;2023-05-07T07:03:30;7.78;;;5.50;;
8279;SDS011;8335;42.646;23.380;2023-05-07T07:05:58;7.53;;;5.68;;
8279;SDS011;8335;42.646;23.380;2023-05-07T07:08:26;8.40;;;6.65;;
8279;SDS011;8335;42.646;23.380;2023-05-07T07:10:53;9.13;;;5.90;;
8279;SDS011;8335;42.646;23.380;2023-05-07T07:13:20;10.23;;;6.22;;
8279;SDS011;8335;42.646;23.380;2023-05-07T07:15:46;11.48;;;6.05;;
8279;SDS011;8335;42.646;23.380;2023-05-07T07:18:13;8.70;;;5.80;;
8279;SDS011;8335;42.646;23.380;2023-05-07T07:20:40;11.80;;;6.05;;
8279;SDS011;8335;42.646;23.380;2023-05-07T07:23:08;7.05;;;5.97;;
8279;SDS011;8335;42.646;23.380;2023-05-07T07:25:35;8.77;;;6.28;;
8279;SDS011;8335;42.646;23.380;2023-05-07T07:28:02;8.68;;;6.25;;
8279;SDS011;8335;42.646;23.380;2023-05-07T07:30:28;12.25;;;6.55;;
8279;SDS011;8335;42.646;23.380;2023-05-07T07:32:55;9.25;;;6.80;;
8279;SDS011;8335;42.646;23.380;2023-05-07T07:35:27;10.18;;;6.10;;
8279;SDS011;8335;42.646;23.380;2023-05-07T07:37:54;12.18;;;6.38;;
8279;SDS011;8335;42.646;23.380;2023-05-07T07:40:22;8.70;;;6.20;;
8279;SDS011;8335;42.646;23.380;2023-05-07T07:42:49;10.32;;;7.00;;
8279;SDS011;8335;42.646;23.380;2023-05-07T07:45:15;8.68;;;6.05;;
8279;SDS011;8335;42.646;23.380;2023-05-07T07:47:42;14.38;;;7.22;;
8279;SDS011;8335;42.646;23.380;2023-05-07T07:50:09;13.45;;;6.70;;
8279;SDS011;8335;42.646;23.380;2023-05-07T07:52:36;8.80;;;6.57;;
8279;SDS011;8335;42.646;23.380;2023-05-07T07:55:03;7.43;;;5.80;;
8279;SDS011;8335;42.646;23.380;2023-05-07T07:57:32;11.30;;;6.57;;
8279;SDS011;8335;42.646;23.380;2023-05-07T07:59:58;8.35;;;5.82;;
8279;SDS011;8335;42.646;23.380;2023-05-07T08:02:25;7.25;;;6.20;;
8279;SDS011;8335;42.646;23.380;2023-05-07T08:04:52;11.57;;;6.70;;
8279;SDS011;8335;42.646;23.380;2023-05-07T08:07:19;7.93;;;6.40;;
8279;SDS011;8335;42.646;23.380;2023-05-07T08:09:47;9.95;;;6.53;;
8279;SDS011;8335;42.646;23.380;2023-05-07T08:12:14;8.35;;;6.85;;
8279;SDS011;8335;42.646;23.380;2023-05-07T08:14:42;8.77;;;7.22;;
8279;SDS011;8335;42.646;23.380;2023-05-07T08:17:09;8.07;;;6.72;;
8279;SDS011;8335;42.646;23.380;2023-05-07T08:19:36;8.75;;;6.85;;
8279;SDS011;8335;42.646;23.380;2023-05-07T08:22:03;10.07;;;7.03;;
8279;SDS011;8335;42.646;23.380;2023-05-07T08:24:30;9.13;;;6.63;;
8279;SDS011;8335;42.646;23.380;2023-05-07T08:26:57;9.40;;;6.50;;
8279;SDS011;8335;42.646;23.380;2023-05-07T08:29:24;8.95;;;6.20;;
8279;SDS011;8335;42.646;23.380;2023-05-07T08:31:52;9.70;;;6.60;;
8279;SDS011;8335;42.646;23.380;2023-05-07T08:34:19;10.05;;;7.45;;
8279;SDS011;8335;42.646;23.380;2023-05-07T08:36:45;11.07;;;6.72;;
8279;SDS011;8335;42.646;23.380;2023-05-07T08:39:13;9.27;;;6.43;;
8279;SDS011;8335;42.646;23.380;2023-05-07T08:41:42;7.70;;;6.00;;
8279;SDS011;8335;42.646;23.380;2023-05-07T08:44:11;7.57;;;5.82;;
8279;SDS011;8335;42.646;23.380;2023-05-07T08:46:40;7.15;;;5.70;;
8279;SDS011;8335;42.646;23.380;2023-05-07T08:49:09;7.68;;;5.65;;
8279;SDS011;8335;42.646;23.380;2023-05-07T08:51:36;6.07;;;5.10;;
8279;SDS011;8335;42.646;23.380;2023-05-07T08:54:03;6.40;;;4.65;;
8279;SDS011;8335;42.646;23.380;2023-05-07T08:56:32;7.40;;;5.03;;
8279;SDS011;8335;42.646;23.380;2023-05-07T08:58:59;10.93;;;5.40;;
8279;SDS011;8335;42.646;23.380;2023-05-07T09:01:25;7.78;;;5.32;;
8279;SDS011;8335;42.646;23.380;2023-05-07T09:03:52;7.63;;;5.25;;
8279;SDS011;8335;42.646;23.380;2023-05-07T09:06:21;6.25;;;5.03;;
8279;SDS011;8335;42.646;23.380;2023-05-07T09:08:51;4.97;;;4.00;;
8279;SDS011;8335;42.646;23.380;2023-05-07T09:11:22;5.03;;;4.13;;
8279;SDS011;8335;42.646;23.380;2023-05-07T09:13:49;9.05;;;4.55;;
8279;SDS011;8335;42.646;23.380;2023-05-07T09:16:20;7.35;;;4.60;;
8279;SDS011;8335;42.646;23.380;2023-05-07T09:18:48;8.90;;;4.97;;
8279;SDS011;8335;42.646;23.380;2023-05-07T09:21:17;7.25;;;4.75;;
8279;SDS011;8335;42.646;23.380;2023-05-07T09:23:46;6.18;;;4.40;;
8279;SDS011;8335;42.646;23.380;2023-05-07T09:26:14;6.97;;;4.65;;
8279;SDS011;8335;42.646;23.380;2023-05-07T09:28:41;7.15;;;4.85;;
8279;SDS011;8335;42.646;23.380;2023-05-07T09:31:08;6.97;;;4.50;;
8279;SDS011;8335;42.646;23.380;2023-05-07T09:33:35;4.38;;;3.70;;
8279;SDS011;8335;42.646;23.380;2023-05-07T09:36:02;6.72;;;4.30;;
8279;SDS011;8335;42.646;23.380;2023-05-07T09:38:30;5.68;;;4.15;;
8279;SDS011;8335;42.646;23.380;2023-05-07T09:41:08;6.90;;;4.00;;
8279;SDS011;8335;42.646;23.380;2023-05-07T09:43:36;5.82;;;4.13;;
8279;SDS011;8335;42.646;23.380;2023-05-07T09:46:06;4.95;;;3.90;;
8279;SDS011;8335;42.646;23.380;2023-05-07T09:48:35;4.40;;;3.95;;
8279;SDS011;8335;42.646;23.380;2023-05-07T09:51:06;5.68;;;4.07;;
8279;SDS011;8335;42.646;23.380;2023-05-07T09:53:41;5.90;;;4.13;;
8279;SDS011;8335;42.646;23.380;2023-05-07T09:56:12;6.15;;;3.95;;
8279;SDS011;8335;42.646;23.380;2023-05-07T09:58:41;7.50;;;4.43;;
8279;SDS011;8335;42.646;23.380;2023-05-07T10:01:08;6.88;;;3.90;;
8279;SDS011;8335;42.646;23.380;2023-05-07T10:03:37;4.00;;;3.55;;
8279;SDS011;8335;42.646;23.380;2023-05-07T10:06:07;4.40;;;3.80;;
8279;SDS011;8335;42.646;23.380;2023-05-07T10:08:35;4.95;;;3.67;;
8279;SDS011;8335;42.646;23.380;2023-05-07T10:11:02;3.97;;;3.58;;
8279;SDS011;8335;42.646;23.380;2023-05-07T10:13:31;3.92;;;3.63;;
8279;SDS011;8335;42.646;23.380;2023-05-07T10:15:59;4.90;;;3.83;;
8279;SDS011;8335;42.646;23.380;2023-05-07T10:18:26;4.70;;;3.60;;
8279;SDS011;8335;42.646;23.380;2023-05-07T10:20:54;4.38;;;3.72;;
8279;SDS011;8335;42.646;23.380;2023-05-07T10:23:27;4.70;;;4.20;;
8279;SDS011;8335;42.646;23.380;2023-05-07T10:25:55;11.05;;;4.22;;
8279;SDS011;8335;42.646;23.380;2023-05-07T10:28:23;4.65;;;3.85;;
8279;SDS011;8335;42.646;23.380;2023-05-07T10:30:57;6.60;;;3.70;;
8279;SDS011;8335;42.646;23.380;2023-05-07T10:33:30;5.22;;;3.95;;
8279;SDS011;8335;42.646;23.380;2023-05-07T10:35:59;4.00;;;3.60;;
8279;SDS011;8335;42.646;23.380;2023-05-07T10:38:29;5.00;;;3.97;;
8279;SDS011;8335;42.646;23.380;2023-05-07T10:40:56;4.32;;;3.90;;
8279;SDS011;8335;42.646;23.380;2023-05-07T10:43:23;6.55;;;4.00;;
8279;SDS011;8335;42.646;23.380;2023-05-07T10:51:36;6.50;;;4.50;;
8279;SDS011;8335;42.646;23.380;2023-05-07T10:54:20;6.55;;;4.35;;
8279;SDS011;8335;42.646;23.380;2023-05-07T10:56:48;8.48;;;4.05;;
8279;SDS011;8335;42.646;23.380;2023-05-07T10:59:31;5.72;;;4.00;;
8279;SDS011;8335;42.646;23.380;2023-05-07T11:02:08;4.85;;;4.22;;
8279;SDS011;8335;42.646;23.380;2023-05-07T11:04:36;6.28;;;4.40;;
8279;SDS011;8335;42.646;23.380;2023-05-07T11:10:01;5.53;;;4.50;;
8279;SDS011;8335;42.646;23.380;2023-05-07T11:12:48;6.40;;;4.53;;
8279;SDS011;8335;42.646;23.380;2023-05-07T11:18:04;5.32;;;4.30;;
8279;SDS011;8335;42.646;23.380;2023-05-07T11:20:46;7.63;;;4.55;;
8279;SDS011;8335;42.646;23.380;2023-05-07T11:26:43;5.60;;;4.75;;
8279;SDS011;8335;42.646;23.380;2023-05-07T11:29:12;4.22;;;3.67;;
8279;SDS011;8335;42.646;23.380;2023-05-07T11:31:39;5.50;;;4.25;;
8279;SDS011;8335;42.646;23.380;2023-05-07T11:34:08;5.15;;;4.60;;
8279;SDS011;8335;42.646;23.380;2023-05-07T11:36:35;5.55;;;4.18;;
8279;SDS011;8335;42.646;23.380;2023-05-07T11:39:02;4.47;;;3.97;;
8279;SDS011;8335;42.646;23.380;2023-05-07T11:41:35;6.20;;;4.03;;
8279;SDS011;8335;42.646;23.380;2023-05-07T11:44:02;6.32;;;4.63;;
8279;SDS011;8335;42.646;23.380;2023-05-07T11:46:29;5.55;;;4.40;;
8279;SDS011;8335;42.646;23.380;2023-05-07T11:48:56;6.25;;;4.38;;
8279;SDS011;8335;42.646;23.380;2023-05-07T11:51:25;4.97;;;4.53;;
8279;SDS011;8335;42.646;23.380;2023-05-07T11:53:52;7.70;;;4.85;;
8279;SDS011;8335;42.646;23.380;2023-05-07T11:56:19;6.57;;;4.57;;
8279;SDS011;8335;42.646;23.380;2023-05-07T11:58:47;5.97;;;3.90;;
8279;SDS011;8335;42.646;23.380;2023-05-07T12:01:14;7.55;;;4.68;;
8279;SDS011;8335;42.646;23.380;2023-05-07T12:03:44;6.38;;;4.28;;
8279;SDS011;8335;42.646;23.380;2023-05-07T12:06:12;6.40;;;4.90;;
8279;SDS011;8335;42.646;23.380;2023-05-07T12:08:43;5.35;;;4.85;;
8279;SDS011;8335;42.646;23.380;2023-05-07T12:11:13;5.65;;;4.68;;
8279;SDS011;8335;42.646;23.380;2023-05-07T12:13:42;4.82;;;4.32;;
8279;SDS011;8335;42.646;23.380;2023-05-07T12:16:09;5.68;;;4.28;;
8279;SDS011;8335;42.646;23.380;2023-05-07T12:18:36;5.00;;;4.50;;
8279;SDS011;8335;42.646;23.380;2023-05-07T12:21:04;6.57;;;4.35;;
8279;SDS011;8335;42.646;23.380;2023-05-07T12:23:32;7.30;;;4.90;;
8279;SDS011;8335;42.646;23.380;2023-05-07T12:26:01;4.82;;;4.32;;
8279;SDS011;8335;42.646;23.380;2023-05-07T12:28:28;4.95;;;4.55;;
8279;SDS011;8335;42.646;23.380;2023-05-07T12:30:55;9.52;;;4.75;;
8279;SDS011;8335;42.646;23.380;2023-05-07T12:33:23;4.93;;;4.43;;
8279;SDS011;8335;42.646;23.380;2023-05-07T12:35:53;8.73;;;4.85;;
8279;SDS011;8335;42.646;23.380;2023-05-07T12:38:21;6.60;;;4.78;;
8279;SDS011;8335;42.646;23.380;2023-05-07T12:40:49;5.68;;;4.75;;
8279;SDS011;8335;42.646;23.380;2023-05-07T12:43:18;5.93;;;4.78;;
8279;SDS011;8335;42.646;23.380;2023-05-07T12:45:46;4.90;;;4.50;;
8279;SDS011;8335;42.646;23.380;2023-05-07T12:48:15;5.45;;;4.22;;
8279;SDS011;8335;42.646;23.380;2023-05-07T12:50:42;7.70;;;4.03;;
8279;SDS011;8335;42.646;23.380;2023-05-07T12:53:10;12.10;;;4.53;;
8279;SDS011;8335;42.646;23.380;2023-05-07T12:55:42;6.72;;;4.95;;
8279;SDS011;8335;42.646;23.380;2023-05-07T12:58:14;6.88;;;4.18;;
8279;SDS011;8335;42.646;23.380;2023-05-07T13:00:43;6.05;;;4.07;;
8279;SDS011;8335;42.646;23.380;2023-05-07T13:03:11;8.35;;;4.20;;
8279;SDS011;8335;42.646;23.380;2023-05-07T13:05:38;4.57;;;3.90;;
8279;SDS011;8335;42.646;23.380;2023-05-07T13:08:05;6.82;;;4.43;;
8279;SDS011;8335;42.646;23.380;2023-05-07T13:10:34;6.25;;;4.13;;
8279;SDS011;8335;42.646;23.380;2023-05-07T13:13:01;6.05;;;4.20;;
8279;SDS011;8335;42.646;23.380;2023-05-07T13:15:28;6.63;;;4.22;;
8279;SDS011;8335;42.646;23.380;2023-05-07T13:17:56;6.00;;;4.13;;
8279;SDS011;8335;42.646;23.380;2023-05-07T13:20:23;4.50;;;3.63;;
8279;SDS011;8335;42.646;23.380;2023-05-07T13:22:49;3.95;;;3.50;;
8279;SDS011;8335;42.646;23.380;2023-05-07T13:25:16;4.50;;;3.15;;
8279;SDS011;8335;42.646;23.380;2023-05-07T13:27:43;5.03;;;3.15;;
8279;SDS011;8335;42.646;23.380;2023-05-07T13:30:10;5.38;;;3.38;;
8279;SDS011;8335;42.646;23.380;2023-05-07T13:32:37;4.43;;;3.15;;
8279;SDS011;8335;42.646;23.380;2023-05-07T13:35:05;4.40;;;3.28;;
8279;SDS011;8335;42.646;23.380;2023-05-07T13:37:33;3.50;;;3.20;;
8279;SDS011;8335;42.646;23.380;2023-05-07T13:40:00;5.35;;;3.50;;
8279;SDS011;8335;42.646;23.380;2023-05-07T13:42:26;4.75;;;3.67;;
8279;SDS011;8335;42.646;23.380;2023-05-07T13:44:53;5.63;;;3.60;;
8279;SDS011;8335;42.646;23.380;2023-05-07T13:47:20;3.83;;;3.13;;
8279;SDS011;8335;42.646;23.380;2023-05-07T13:49:46;6.35;;;3.65;;
8279;SDS011;8335;42.646;23.380;2023-05-07T13:52:16;3.47;;;3.17;;
8279;SDS011;8335;42.646;23.380;2023-05-07T13:54:43;3.45;;;2.92;;
8279;SDS011;8335;42.646;23.380;2023-05-07T13:57:10;4.53;;;3.25;;
8279;SDS011;8335;42.646;23.380;2023-05-07T13:59:36;6.55;;;3.40;;
8279;SDS011;8335;42.646;23.380;2023-05-07T14:02:03;6.25;;;3.83;;
8279;SDS011;8335;42.646;23.380;2023-05-07T14:04:30;3.80;;;3.40;;
8279;SDS011;8335;42.646;23.380;2023-05-07T14:06:57;3.85;;;3.40;;
8279;SDS011;8335;42.646;23.380;2023-05-07T14:09:25;4.18;;;3.45;;
8279;SDS011;8335;42.646;23.380;2023-05-07T14:11:52;4.68;;;3.38;;
8279;SDS011;8335;42.646;23.380;2023-05-07T14:14:18;4.10;;;3.50;;
8279;SDS011;8335;42.646;23.380;2023-05-07T14:16:45;4.93;;;3.40;;
8279;SDS011;8335;42.646;23.380;2023-05-07T14:19:12;4.50;;;3.70;;
8279;SDS011;8335;42.646;23.380;2023-05-07T14:21:39;7.70;;;4.40;;
8279;SDS011;8335;42.646;23.380;2023-05-07T14:24:06;6.95;;;4.07;;
8279;SDS011;8335;42.646;23.380;2023-05-07T14:26:34;6.32;;;3.58;;
8279;SDS011;8335;42.646;23.380;2023-05-07T14:29:01;4.85;;;3.85;;
8279;SDS011;8335;42.646;23.380;2023-05-07T14:31:28;4.95;;;3.20;;
8279;SDS011;8335;42.646;23.380;2023-05-07T14:33:55;6.05;;;3.20;;
8279;SDS011;8335;42.646;23.380;2023-05-07T14:36:23;7.47;;;3.30;;
8279;SDS011;8335;42.646;23.380;2023-05-07T14:38:51;3.40;;;3.10;;
8279;SDS011;8335;42.646;23.380;2023-05-07T14:41:18;4.13;;;3.20;;
8279;SDS011;8335;42.646;23.380;2023-05-07T14:43:47;3.97;;;3.20;;
8279;SDS011;8335;42.646;23.380;2023-05-07T14:46:15;7.18;;;3.65;;
8279;SDS011;8335;42.646;23.380;2023-05-07T14:48:42;4.38;;;3.50;;
8279;SDS011;8335;42.646;23.380;2023-05-07T14:51:10;6.53;;;3.90;;
8279;SDS011;8335;42.646;23.380;2023-05-07T14:53:37;4.03;;;3.22;;
8279;SDS011;8335;42.646;23.380;2023-05-07T14:56:04;5.15;;;2.85;;
8279;SDS011;8335;42.646;23.380;2023-05-07T14:58:31;3.97;;;3.00;;
8279;SDS011;8335;42.646;23.380;2023-05-07T15:01:00;4.32;;;3.30;;
8279;SDS011;8335;42.646;23.380;2023-05-07T15:03:27;4.03;;;3.08;;
8279;SDS011;8335;42.646;23.380;2023-05-07T15:05:54;5.55;;;3.60;;
8279;SDS011;8335;42.646;23.380;2023-05-07T15:08:21;3.65;;;3.00;;
8279;SDS011;8335;42.646;23.380;2023-05-07T15:10:48;4.28;;;3.40;;
8279;SDS011;8335;42.646;23.380;2023-05-07T15:13:14;6.63;;;3.30;;